createdAt,value
2023-11-27T00:00:56.791Z,20.40
2023-11-27T00:03:23.845Z,22.10
2023-11-27T00:05:50.576Z,20.40
2023-11-27T00:08:20.653Z,21.70
2023-11-27T00:10:47.619Z,19.60
2023-11-27T00:13:16.578Z,20.00
2023-11-27T00:15:44.895Z,18.20
2023-11-27T00:18:11.637Z,19.20
2023-11-27T00:20:38.520Z,19.20
2023-11-27T00:23:05.392Z,20.50
2023-11-27T00:25:32.174Z,17.70
2023-11-27T00:28:00.945Z,18.90
2023-11-27T00:32:57.504Z,19.80
2023-11-27T00:35:24.465Z,18.20
2023-11-27T00:37:51.637Z,17.30
2023-11-27T00:40:20.698Z,19.60
2023-11-27T00:42:51.051Z,20.00
2023-11-27T00:45:20.555Z,20.30
2023-11-27T00:47:47.960Z,17.60
2023-11-27T00:50:16.798Z,18.00
2023-11-27T00:55:11.980Z,19.80
2023-11-27T00:57:41.851Z,16.00
2023-11-27T01:00:12.348Z,17.00
2023-11-27T01:02:39.511Z,14.70
2023-11-27T01:05:08.865Z,13.60
2023-11-27T01:07:35.619Z,15.40
2023-11-27T01:10:02.501Z,13.70
2023-11-27T01:12:31.096Z,11.50
2023-11-27T01:14:57.699Z,15.30
2023-11-27T01:17:24.399Z,10.70
2023-11-27T01:19:51.293Z,12.20
2023-11-27T01:22:19.066Z,12.00
2023-11-27T01:24:46.298Z,11.60
2023-11-27T01:27:15.132Z,14.40
2023-11-27T01:32:09.006Z,12.10
2023-11-27T01:34:35.939Z,11.70
2023-11-27T01:37:02.781Z,12.00
2023-11-27T01:39:29.618Z,12.20
2023-11-27T01:41:56.556Z,12.60
2023-11-27T01:44:25.401Z,10.80
2023-11-27T01:46:52.518Z,11.80
2023-11-27T01:49:19.690Z,8.70
2023-11-27T01:51:49.232Z,9.30
2023-11-27T01:54:16.698Z,8.40
2023-11-27T01:56:49.971Z,10.80
2023-11-27T01:59:19.437Z,9.60
2023-11-27T02:01:46.434Z,8.40
2023-11-27T02:04:15.132Z,9.90
2023-11-27T02:09:09.408Z,8.10
2023-11-27T02:11:48.603Z,5.80
2023-11-27T02:14:16.827Z,9.10
2023-11-27T02:16:49.394Z,8.90
2023-11-27T02:19:16.424Z,9.40
2023-11-27T02:21:43.458Z,7.80
2023-11-27T02:24:10.260Z,8.80
2023-11-27T02:26:37.075Z,6.70
2023-11-27T02:29:09.007Z,8.50
2023-11-27T02:31:36.038Z,5.60
2023-11-27T02:34:03.051Z,6.40
2023-11-27T02:36:36.780Z,8.00
2023-11-27T02:39:09.382Z,6.60
2023-11-27T02:41:39.605Z,10.00
2023-11-27T02:44:06.656Z,6.10
2023-11-27T02:46:36.814Z,7.60
2023-11-27T02:49:03.687Z,6.40
2023-11-27T02:51:30.551Z,6.70
2023-11-27T02:53:57.431Z,6.30
2023-11-27T02:56:24.824Z,9.20
2023-11-27T02:58:52.690Z,6.00
2023-11-27T03:01:22.999Z,6.60
2023-11-27T03:03:49.938Z,6.40
2023-11-27T03:06:17.253Z,6.00
2023-11-27T03:08:43.854Z,9.40
2023-11-27T03:11:12.851Z,6.20
2023-11-27T03:13:41.776Z,7.90
2023-11-27T03:18:35.364Z,7.20
2023-11-27T03:21:02.038Z,10.20
2023-11-27T03:23:29.145Z,8.10
2023-11-27T03:25:56.391Z,6.50
2023-11-27T03:28:23.103Z,8.60
2023-11-27T03:30:51.814Z,8.50
2023-11-27T03:35:45.331Z,6.50
2023-11-27T03:38:12.198Z,6.10
2023-11-27T03:40:38.960Z,7.70
2023-11-27T03:43:05.680Z,7.90
2023-11-27T03:45:32.912Z,6.50
2023-11-27T03:48:02.490Z,7.20
2023-11-27T03:50:29.017Z,7.50
2023-11-27T03:52:56.439Z,5.80
2023-11-27T03:55:25.733Z,8.20
2023-11-27T03:57:55.665Z,8.60
2023-11-27T04:00:22.724Z,10.80
2023-11-27T04:02:49.595Z,9.70
2023-11-27T04:05:18.360Z,6.70
2023-11-27T04:07:45.218Z,8.40
2023-11-27T04:10:19.680Z,6.50
2023-11-27T04:12:49.053Z,6.80
2023-11-27T04:15:17.677Z,8.40
2023-11-27T04:22:45.309Z,5.70
2023-11-27T04:25:12.732Z,8.40
2023-11-27T04:27:39.590Z,5.50
2023-11-27T04:30:07.018Z,7.10
2023-11-27T04:32:34.605Z,7.00
2023-11-27T04:35:04.378Z,9.20
2023-11-27T04:37:32.093Z,9.20
2023-11-27T04:39:58.909Z,6.90
2023-11-27T04:42:26.695Z,9.40
2023-11-27T04:44:56.994Z,9.90
2023-11-27T04:47:25.853Z,9.30
2023-11-27T04:49:52.778Z,8.70
2023-11-27T04:52:21.036Z,10.70
2023-11-27T04:54:53.077Z,7.60
2023-11-27T04:57:22.616Z,8.20
2023-11-27T04:59:52.016Z,9.80
2023-11-27T05:02:19.005Z,10.20
2023-11-27T05:04:46.290Z,6.50
2023-11-27T05:07:15.766Z,9.00
2023-11-27T05:09:44.775Z,9.30
2023-11-27T05:12:17.489Z,7.80
2023-11-27T05:14:53.483Z,6.90
2023-11-27T05:17:20.384Z,6.30
2023-11-27T05:19:47.153Z,8.40
2023-11-27T05:22:14.020Z,10.50
2023-11-27T05:24:41.170Z,6.70
2023-11-27T05:27:07.973Z,5.30
2023-11-27T05:29:34.991Z,8.00
2023-11-27T05:32:09.358Z,7.90
2023-11-27T05:34:39.398Z,6.80
2023-11-27T05:37:09.552Z,8.50
2023-11-27T05:39:42.122Z,8.80
2023-11-27T05:42:13.223Z,6.70
2023-11-27T05:44:42.593Z,6.70
2023-11-27T05:47:11.665Z,9.90
2023-11-27T05:49:39.986Z,8.10
2023-11-27T05:52:10.279Z,7.00
2023-11-27T05:54:39.219Z,5.70
2023-11-27T05:59:32.868Z,6.70
2023-11-27T06:01:59.683Z,6.70
2023-11-27T06:04:28.368Z,6.60
2023-11-27T06:06:56.403Z,5.30
2023-11-27T06:09:28.223Z,6.40
2023-11-27T06:11:55.633Z,5.30
2023-11-27T06:14:22.394Z,4.90
2023-11-27T06:16:49.349Z,4.60
2023-11-27T06:19:16.193Z,4.90
2023-11-27T06:21:44.925Z,3.70
2023-11-27T06:26:38.781Z,3.80
2023-11-27T06:29:05.821Z,4.80
2023-11-27T06:31:32.633Z,4.40
2023-11-27T06:33:59.818Z,6.00
2023-11-27T06:36:27.492Z,5.30
2023-11-27T06:38:59.523Z,5.30
2023-11-27T06:41:27.655Z,7.30
2023-11-27T06:43:55.603Z,5.10
2023-11-27T06:46:25.465Z,3.00
2023-11-27T06:48:53.357Z,4.80
2023-11-27T06:51:20.841Z,4.60
2023-11-27T06:53:48.457Z,4.10
2023-11-27T06:56:17.891Z,5.00
2023-11-27T06:58:46.771Z,3.90
2023-11-27T07:01:13.948Z,4.40
2023-11-27T07:03:40.768Z,3.10
2023-11-27T07:06:09.123Z,3.70
2023-11-27T07:08:36.214Z,2.90
2023-11-27T07:11:09.748Z,2.30
2023-11-27T07:13:37.251Z,2.70
2023-11-27T07:16:04.309Z,3.90
2023-11-27T07:18:34.224Z,2.90
2023-11-27T07:21:03.863Z,3.00
2023-11-27T07:23:30.882Z,2.40
2023-11-27T07:25:58.186Z,3.70
2023-11-27T07:28:25.005Z,2.20
2023-11-27T07:30:51.918Z,3.00
2023-11-27T07:33:18.742Z,2.20
2023-11-27T07:35:48.935Z,2.70
2023-11-27T07:38:15.791Z,2.10
2023-11-27T07:40:44.154Z,1.60
2023-11-27T07:43:12.590Z,2.30
2023-11-27T07:45:41.560Z,2.60
2023-11-27T07:50:35.281Z,1.70
2023-11-27T07:53:01.930Z,2.00
2023-11-27T07:55:29.376Z,2.20
2023-11-27T07:57:56.797Z,2.20
2023-11-27T08:00:27.788Z,1.90
2023-11-27T08:02:54.789Z,1.90
2023-11-27T08:05:23.906Z,1.70
2023-11-27T08:07:50.737Z,2.10
2023-11-27T08:10:19.957Z,2.20
2023-11-27T08:12:46.849Z,1.80
2023-11-27T08:15:20.328Z,1.80
2023-11-27T08:17:50.459Z,2.70
2023-11-27T08:20:18.404Z,1.90
2023-11-27T08:22:46.611Z,1.90
2023-11-27T08:25:17.792Z,2.20
2023-11-27T08:27:48.639Z,1.60
2023-11-27T08:30:15.797Z,2.90
2023-11-27T08:32:42.575Z,1.80
2023-11-27T08:35:09.835Z,1.50
2023-11-27T08:37:37.122Z,1.50
2023-11-27T08:40:08.228Z,2.40
2023-11-27T08:42:40.618Z,1.70
2023-11-27T08:45:29.261Z,1.60
2023-11-27T08:48:03.708Z,2.70
2023-11-27T08:50:36.864Z,2.30
2023-11-27T08:53:09.019Z,2.60
2023-11-27T08:55:36.179Z,2.30
2023-11-27T08:58:05.948Z,1.80
2023-11-27T09:00:36.612Z,1.40
2023-11-27T09:03:04.376Z,1.40
2023-11-27T09:05:32.591Z,1.50
2023-11-27T09:08:02.092Z,1.50
2023-11-27T09:10:31.125Z,1.40
2023-11-27T09:12:57.847Z,1.80
2023-11-27T09:15:25.114Z,1.60
2023-11-27T09:17:52.098Z,3.10
2023-11-27T09:20:19.125Z,10.20
2023-11-27T09:22:45.863Z,1.30
2023-11-27T09:25:14.571Z,1.10
2023-11-27T09:27:43.933Z,2.40
2023-11-27T09:30:11.772Z,1.40
2023-11-27T09:32:39.633Z,1.30
2023-11-27T09:35:13.968Z,1.30
2023-11-27T09:37:43.589Z,1.30
2023-11-27T09:40:12.897Z,1.40
2023-11-27T09:42:46.870Z,1.50
2023-11-27T09:45:18.336Z,1.40
2023-11-27T09:47:49.168Z,2.70
2023-11-27T09:50:17.061Z,1.50
2023-11-27T09:52:54.251Z,2.70
2023-11-27T09:55:24.028Z,1.30
2023-11-27T09:57:53.370Z,2.30
2023-11-27T10:00:21.774Z,1.80
2023-11-27T10:02:49.355Z,1.60
2023-11-27T10:05:23.614Z,1.70
2023-11-27T10:07:54.250Z,1.60
2023-11-27T10:10:30.706Z,1.50
2023-11-27T10:13:07.020Z,1.70
2023-11-27T10:15:36.954Z,1.70
2023-11-27T10:18:10.077Z,1.70
2023-11-27T10:20:37.002Z,2.50
2023-11-27T10:23:06.734Z,1.40
2023-11-27T10:25:38.377Z,1.60
2023-11-27T10:28:07.709Z,1.90
2023-11-27T10:30:34.683Z,1.60
2023-11-27T10:33:02.690Z,1.70
2023-11-27T10:35:34.991Z,2.20
2023-11-27T10:38:04.748Z,1.70
2023-11-27T10:40:32.311Z,2.00
2023-11-27T10:43:04.149Z,2.10
2023-11-27T10:45:31.879Z,2.50
2023-11-27T10:48:02.415Z,1.60
2023-11-27T10:50:33.028Z,1.90
2023-11-27T10:53:02.256Z,1.50
2023-11-27T10:55:29.408Z,1.40
2023-11-27T10:57:59.507Z,1.30
2023-11-27T11:00:34.065Z,1.40
2023-11-27T11:03:07.861Z,1.60
2023-11-27T11:05:51.523Z,1.60
2023-11-27T11:08:29.121Z,1.60
2023-11-27T11:10:58.355Z,1.50
2023-11-27T11:13:27.666Z,1.50
2023-11-27T11:16:15.691Z,1.00
2023-11-27T11:21:32.677Z,1.50
2023-11-27T11:24:11.736Z,1.80
2023-11-27T11:26:49.126Z,1.50
2023-11-27T11:29:33.931Z,2.10
2023-11-27T11:32:06.951Z,2.80
2023-11-27T11:34:38.439Z,2.60
2023-11-27T11:37:05.967Z,2.50
2023-11-27T11:39:34.921Z,1.70
2023-11-27T11:42:04.032Z,1.70
2023-11-27T11:44:34.471Z,1.50
2023-11-27T11:47:08.142Z,2.00
2023-11-27T11:49:37.139Z,1.60
2023-11-27T11:52:09.268Z,1.60
2023-11-27T11:54:40.179Z,1.50
2023-11-27T11:57:14.016Z,1.10
2023-11-27T11:59:45.417Z,1.30
2023-11-27T12:02:15.486Z,1.20
2023-11-27T12:04:45.325Z,1.10
2023-11-27T12:07:14.644Z,1.20
2023-11-27T12:09:44.875Z,1.10
2023-11-27T12:12:16.277Z,1.30
2023-11-27T12:14:44.457Z,1.00
2023-11-27T12:17:20.444Z,1.50
2023-11-27T12:19:49.692Z,1.50
2023-11-27T12:22:20.716Z,1.50
2023-11-27T12:24:52.154Z,1.40
2023-11-27T12:27:18.938Z,1.00
2023-11-27T12:29:51.196Z,1.40
2023-11-27T12:32:21.633Z,1.80
2023-11-27T12:34:49.140Z,1.70
2023-11-27T12:37:21.241Z,1.60
2023-11-27T12:39:54.712Z,1.50
2023-11-27T12:42:23.744Z,1.90
2023-11-27T12:47:20.428Z,2.20
2023-11-27T12:49:52.989Z,2.40
2023-11-27T12:52:22.238Z,3.10
2023-11-27T12:54:55.540Z,3.10
2023-11-27T12:57:23.368Z,3.10
2023-11-27T12:59:52.220Z,2.60
2023-11-27T13:04:59.024Z,2.40
2023-11-27T13:07:28.432Z,2.60
2023-11-27T13:09:57.027Z,2.70
2023-11-27T13:12:27.221Z,2.50
2023-11-27T13:14:56.424Z,2.70
2023-11-27T13:19:55.430Z,2.60
2023-11-27T13:22:23.894Z,2.70
2023-11-27T13:24:54.859Z,2.20
2023-11-27T13:27:22.993Z,2.50
2023-11-27T13:29:53.388Z,2.20
2023-11-27T13:32:23.878Z,2.40
2023-11-27T13:34:57.502Z,2.20
2023-11-27T13:37:29.613Z,1.90
2023-11-27T13:39:59.208Z,2.10
2023-11-27T13:42:26.796Z,2.30
2023-11-27T13:44:53.488Z,2.00
2023-11-27T13:47:22.355Z,2.20
2023-11-27T13:49:49.966Z,2.10
2023-11-27T13:52:18.508Z,2.00
2023-11-27T13:54:46.669Z,3.00
2023-11-27T13:57:27.357Z,2.20
2023-11-27T13:59:58.503Z,2.20
2023-11-27T14:02:29.562Z,3.50
2023-11-27T14:05:07.859Z,2.40
2023-11-27T14:07:42.615Z,2.50
2023-11-27T14:10:25.328Z,2.50
2023-11-27T14:13:02.780Z,2.90
2023-11-27T14:15:40.485Z,2.70
2023-11-27T14:18:23.578Z,2.40
2023-11-27T14:21:11.716Z,2.20
2023-11-27T14:23:40.624Z,2.20
2023-11-27T14:28:44.505Z,2.20
2023-11-27T14:31:14.278Z,2.50
2023-11-27T14:33:42.133Z,2.50
2023-11-27T14:36:12.769Z,2.30
2023-11-27T14:38:42.799Z,2.60
2023-11-27T14:41:18.313Z,2.30
2023-11-27T14:43:50.787Z,2.40
2023-11-27T14:46:17.972Z,2.10
2023-11-27T14:48:45.729Z,2.10
2023-11-27T14:51:13.153Z,2.40
2023-11-27T14:53:49.821Z,3.80
2023-11-27T14:56:17.432Z,2.70
2023-11-27T14:58:44.538Z,2.10
2023-11-27T15:01:15.615Z,1.90
2023-11-27T15:03:46.263Z,2.40
2023-11-27T15:06:14.102Z,2.10
2023-11-27T15:08:42.823Z,2.20
2023-11-27T15:13:38.585Z,2.00
2023-11-27T15:16:10.517Z,1.90
2023-11-27T15:18:39.563Z,2.30
2023-11-27T15:23:33.290Z,2.00
2023-11-27T15:26:00.416Z,1.70
2023-11-27T15:28:27.502Z,1.70
2023-11-27T15:30:59.540Z,2.10
2023-11-27T15:33:28.928Z,2.20
2023-11-27T15:35:55.576Z,3.00
2023-11-27T15:38:25.120Z,1.60
2023-11-27T15:40:52.588Z,3.30
2023-11-27T15:43:19.759Z,2.00
2023-11-27T15:45:48.556Z,2.30
2023-11-27T15:48:16.400Z,2.80
2023-11-27T15:50:43.493Z,2.10
2023-11-27T15:53:14.075Z,3.00
2023-11-27T15:55:43.282Z,2.30
2023-11-27T15:58:11.542Z,3.10
2023-11-27T16:00:38.647Z,2.40
2023-11-27T16:03:07.540Z,2.60
2023-11-27T16:05:35.298Z,2.50
2023-11-27T16:08:07.431Z,2.30
2023-11-27T16:10:34.544Z,3.10
2023-11-27T16:13:01.810Z,3.20
2023-11-27T16:15:29.667Z,2.60
2023-11-27T16:18:00.978Z,3.00
2023-11-27T16:20:28.454Z,2.20
2023-11-27T16:22:56.179Z,3.00
2023-11-27T16:25:23.993Z,2.80
2023-11-27T16:27:52.999Z,2.70
2023-11-27T16:32:50.730Z,3.50
2023-11-27T16:35:29.738Z,2.30
2023-11-27T16:37:58.818Z,3.50
2023-11-27T16:40:27.144Z,3.30
2023-11-27T16:42:54.501Z,3.10
2023-11-27T16:45:25.813Z,3.40
2023-11-27T16:47:58.839Z,3.70
2023-11-27T16:50:27.286Z,2.60
2023-11-27T16:52:57.785Z,3.30
2023-11-27T16:55:31.578Z,3.00
2023-11-27T16:58:01.105Z,3.30
2023-11-27T17:00:33.443Z,3.50
2023-11-27T17:03:08.660Z,3.00
2023-11-27T17:05:37.434Z,3.80
2023-11-27T17:08:13.068Z,3.40
2023-11-27T17:10:44.113Z,3.50
2023-11-27T17:13:13.452Z,4.00
2023-11-27T17:15:46.593Z,2.90
2023-11-27T17:18:14.365Z,4.00
2023-11-27T17:20:44.051Z,3.10
2023-11-27T17:23:13.964Z,4.00
2023-11-27T17:25:41.229Z,4.90
2023-11-27T17:28:11.671Z,6.30
2023-11-27T17:30:46.083Z,4.50
2023-11-27T17:33:14.155Z,4.40
2023-11-27T17:35:41.595Z,4.00
2023-11-27T17:38:10.436Z,3.00
2023-11-27T17:40:37.660Z,3.90
2023-11-27T17:43:07.403Z,4.30
2023-11-27T17:45:34.462Z,4.60
2023-11-27T17:48:02.222Z,4.90
2023-11-27T17:50:31.537Z,4.30
2023-11-27T17:52:58.750Z,5.10
2023-11-27T17:55:31.571Z,4.70
2023-11-27T17:58:06.198Z,6.10
2023-11-27T18:00:33.317Z,6.60
2023-11-27T18:03:00.132Z,7.50
2023-11-27T18:05:26.996Z,7.40
2023-11-27T18:07:54.988Z,6.70
2023-11-27T18:10:24.813Z,6.20
2023-11-27T18:12:55.520Z,6.80
2023-11-27T18:15:23.189Z,6.60
2023-11-27T18:17:52.706Z,6.30
2023-11-27T18:20:20.816Z,5.20
2023-11-27T18:22:49.470Z,4.80
2023-11-27T18:25:19.952Z,5.90
2023-11-27T18:27:50.383Z,5.80
2023-11-27T18:30:20.776Z,5.60
2023-11-27T18:32:51.248Z,4.20
2023-11-27T18:35:18.500Z,5.20
2023-11-27T18:37:49.878Z,5.00
2023-11-27T18:40:25.384Z,6.20
2023-11-27T18:42:55.840Z,4.30
2023-11-27T18:45:24.657Z,4.70
2023-11-27T18:47:51.776Z,4.20
2023-11-27T18:50:18.953Z,5.50
2023-11-27T18:52:46.080Z,4.10
2023-11-27T18:55:15.673Z,3.30
2023-11-27T18:57:43.025Z,4.10
2023-11-27T19:00:15.921Z,3.70
2023-11-27T19:02:45.495Z,3.40
2023-11-27T19:05:16.848Z,4.20
2023-11-27T19:07:43.575Z,4.70
2023-11-27T19:10:13.358Z,3.70
2023-11-27T19:12:42.450Z,3.70
2023-11-27T19:17:37.706Z,3.40
2023-11-27T19:20:05.354Z,3.70
2023-11-27T19:22:32.235Z,3.00
2023-11-27T19:25:01.051Z,2.90
2023-11-27T19:27:27.812Z,3.70
2023-11-27T19:29:54.630Z,3.80
2023-11-27T19:32:21.431Z,2.80
2023-11-27T19:34:48.308Z,3.50
2023-11-27T19:37:15.822Z,4.00
2023-11-27T19:39:46.166Z,4.20
2023-11-27T19:42:14.899Z,3.70
2023-11-27T19:44:42.602Z,4.10
2023-11-27T19:47:10.247Z,3.80
2023-11-27T19:49:39.381Z,3.60
2023-11-27T19:52:09.307Z,3.50
2023-11-27T19:54:39.389Z,3.50
2023-11-27T19:57:08.759Z,3.70
2023-11-27T19:59:35.407Z,3.70
2023-11-27T20:02:02.731Z,3.50
2023-11-27T20:04:29.787Z,4.00
2023-11-27T20:06:57.324Z,3.40
2023-11-27T20:09:24.574Z,3.70
2023-11-27T20:11:53.988Z,3.70
2023-11-27T20:14:21.450Z,3.30
2023-11-27T20:16:48.543Z,4.20
2023-11-27T20:19:15.532Z,3.10
2023-11-27T20:21:42.407Z,3.50
2023-11-27T20:24:09.350Z,3.50
2023-11-27T20:26:39.122Z,3.90
2023-11-27T20:29:07.960Z,3.40
2023-11-27T20:31:37.817Z,3.60
2023-11-27T20:34:11.013Z,3.20
2023-11-27T20:36:41.528Z,2.90
2023-11-27T20:39:11.403Z,3.00
2023-11-27T20:41:40.397Z,3.10
2023-11-27T20:44:07.086Z,3.10
2023-11-27T20:46:33.935Z,2.60
2023-11-27T20:49:03.975Z,2.90
2023-11-27T20:51:33.325Z,3.00
2023-11-27T20:54:04.320Z,2.70
2023-11-27T20:56:31.037Z,2.80
2023-11-27T20:58:59.216Z,3.00
2023-11-27T21:01:28.554Z,3.20
2023-11-27T21:03:58.205Z,3.50
2023-11-27T21:06:26.403Z,3.90
2023-11-27T21:08:54.163Z,2.40
2023-11-27T21:11:21.830Z,2.20
2023-11-27T21:13:49.295Z,2.10
2023-11-27T21:16:19.263Z,1.70
2023-11-27T21:18:46.666Z,2.30
2023-11-27T21:21:13.861Z,1.60
2023-11-27T21:23:40.660Z,1.80
2023-11-27T21:26:08.232Z,2.10
2023-11-27T21:28:39.574Z,2.10
2023-11-27T21:31:06.530Z,1.70
2023-11-27T21:33:33.350Z,2.00
2023-11-27T21:36:00.640Z,2.40
2023-11-27T21:38:27.202Z,2.60
2023-11-27T21:40:56.570Z,2.00
2023-11-27T21:43:25.947Z,1.80
2023-11-27T21:45:54.432Z,2.00
2023-11-27T21:48:23.173Z,1.30
2023-11-27T21:50:55.340Z,1.70
2023-11-27T21:53:22.274Z,2.00
2023-11-27T21:55:50.731Z,1.60
2023-11-27T21:58:18.133Z,2.10
2023-11-27T22:00:47.134Z,2.30
2023-11-27T22:03:15.443Z,2.10
2023-11-27T22:05:42.291Z,2.20
2023-11-27T22:08:08.997Z,2.30
2023-11-27T22:10:36.609Z,2.80
2023-11-27T22:13:06.006Z,2.40
2023-11-27T22:15:32.922Z,2.20
2023-11-27T22:18:00.360Z,2.30
2023-11-27T22:20:30.931Z,2.30
2023-11-27T22:23:00.409Z,2.50
2023-11-27T22:25:27.264Z,2.30
2023-11-27T22:27:54.143Z,2.90
2023-11-27T22:30:21.281Z,4.00
2023-11-27T22:32:48.060Z,2.30
2023-11-27T22:35:15.183Z,3.00
2023-11-27T22:37:42.003Z,2.70
2023-11-27T22:40:11.859Z,3.00
2023-11-27T22:42:42.153Z,2.50
2023-11-27T22:45:09.392Z,2.60
2023-11-27T22:47:35.989Z,2.80
2023-11-27T22:50:07.284Z,2.40
2023-11-27T22:52:36.323Z,2.60
2023-11-27T22:55:06.692Z,2.40
2023-11-27T22:57:33.706Z,3.10
2023-11-27T23:00:00.525Z,3.20
2023-11-27T23:02:28.245Z,3.60
2023-11-27T23:05:00.549Z,3.40
2023-11-27T23:07:27.478Z,3.40
2023-11-27T23:09:54.284Z,3.10
2023-11-27T23:12:21.014Z,3.20
2023-11-27T23:14:47.770Z,4.00
2023-11-27T23:17:16.562Z,3.10
2023-11-27T23:19:48.767Z,3.40
2023-11-27T23:22:15.603Z,3.50
2023-11-27T23:24:42.365Z,3.40
2023-11-27T23:27:14.029Z,3.60
2023-11-27T23:29:41.360Z,3.30
2023-11-27T23:32:08.196Z,3.90
2023-11-27T23:34:35.126Z,3.50
2023-11-27T23:37:02.091Z,3.70
2023-11-27T23:39:30.833Z,3.70
2023-11-27T23:44:25.087Z,3.90
2023-11-27T23:46:52.908Z,2.90
2023-11-27T23:49:24.351Z,4.30
2023-11-27T23:51:55.015Z,3.60
2023-11-27T23:54:21.772Z,3.20
2023-11-27T23:56:49.987Z,3.90
2023-11-27T23:59:17.353Z,3.90
